Kauai — WSRH — position and weather

sailwx.info

Track history (hours):
 
Tides and Currents Weather Stations Pressure Air Temp Water Temp Dewpoint Dewpoint Depression Visibility Wind Speed Wind Dir Waves Ship Positions

Kauai

Owner: MATSON NAVIGATION COMPANY, INC, Tacoma, WA. More information available from US FCC via Universal Licensing System and Coast Guard Vessel Documentation Center.

Last reported at 2017-Nov-19 18:27 UTC. Time now 2017-Nov-22 09:23 UTC.
Position N 45°32' W 125°23'.

Type: Cargo ship. MMSI: 366364000.

Date/timePositionNaut miles runAvg speedWind from/ knotsBaromVisibWave heightAir tempDewpointWater temp
2017-Nov-19 18:27N 45°32' W 125°23'1020.0
2017-Nov-19 17:57N 45°42' W 125°23'919.8
2017-Nov-19 17:29N 45°52' W 125°23'2740.3
2017-Nov-19 16:48N 46°19' W 125°23'0 0.2
2017-Nov-19 16:05N 46°19' W 125°23'219.5
2017-Nov-19 15:59N 46°21' W 125°23'9919.4
2017-Nov-19 10:52N 47°60' W 125°18'719.1
2017-Nov-19 10:30N 48°07' W 125°15'918.9
2017-Nov-19 10:00N 48°15' W 125°11'919.0
2017-Nov-19 09:30N 48°25' W 125°07'917.5
2017-Nov-19 08:59N 48°31' W 124°56'919.7
2017-Nov-19 08:30N 48°30' W 124°42'1020.2
2017-Nov-19 08:01N 48°26' W 124°28'1121.1
2017-Nov-19 07:30N 48°22' W 124°14'1121.7
2017-Nov-19 07:01N 48°18' W 123°59'1121.6
2017-Nov-19 06:30N 48°16' W 123°43'1122.4
2017-Nov-19 06:00N 48°12' W 123°27'611.9
2017-Nov-19 05:30N 48°09' W 123°19'1120.8
2017-Nov-19 04:59N 48°12' W 123°04'1123.0
2017-Nov-19 04:30N 48°11' W 122°47'1223.9
2017-Nov-19 04:00N 48°01' W 122°37'1122.7
2017-Nov-19 03:30N 47°52' W 122°28'1121.6
2017-Nov-19 03:00N 47°41' W 122°27'713.2
2017-Nov-19 02:30N 47°36' W 122°21'1 1.9
2017-Nov-19 02:00N 47°35' W 122°21'0 0.0
2017-Nov-19 01:30N 47°35' W 122°21'0 0.0
2017-Nov-19 01:00N 47°35' W 122°21'0 0.0
2017-Nov-19 00:30N 47°35' W 122°21'0 0.0
2017-Nov-18 23:59N 47°35' W 122°21'0 0.0
2017-Nov-18 23:29N 47°35' W 122°21'0 0.0
2017-Nov-18 22:59N 47°35' W 122°21'0 0.0
2017-Nov-18 22:29N 47°35' W 122°21'0 0.0
2017-Nov-18 22:00N 47°35' W 122°21'0 0.0
2017-Nov-18 21:29N 47°35' W 122°21'0 0.0
2017-Nov-18 20:57N 47°35' W 122°21'0 0.0
2017-Nov-18 20:30N 47°35' W 122°21'0 0.0
2017-Nov-18 20:00N 47°35' W 122°21'0 0.0
2017-Nov-18 19:29N 47°35' W 122°21'0 0.0
2017-Nov-18 18:59N 47°35' W 122°21'0 0.0
2017-Nov-18 18:29N 47°35' W 122°21'0 0.0
2017-Nov-18 17:59N 47°35' W 122°21'0 0.0
2017-Nov-18 17:29N 47°35' W 122°21'0 0.0
2017-Nov-18 16:59N 47°35' W 122°21'0 0.0
2017-Nov-18 16:30N 47°35' W 122°21'0 0.0
2017-Nov-18 16:00N 47°35' W 122°21'0 0.0
2017-Nov-18 15:29N 47°35' W 122°21'0 0.0
2017-Nov-18 15:00N 47°35' W 122°21'0 0.0
2017-Nov-18 14:30N 47°35' W 122°21'0 0.0
2017-Nov-18 13:59N 47°35' W 122°21'0 0.0
2017-Nov-18 13:29N 47°35' W 122°21'0 0.0
2017-Nov-18 13:00N 47°35' W 122°21'0 0.0
2017-Nov-18 12:29N 47°35' W 122°21'0 0.0
2017-Nov-18 11:57N 47°35' W 122°21'0 0.0
2017-Nov-18 11:30N 47°35' W 122°21'0 0.0
2017-Nov-18 10:59N 47°35' W 122°21'0 0.0
2017-Nov-18 10:29N 47°35' W 122°21'0 0.0
2017-Nov-18 09:59N 47°35' W 122°21'0 0.0
2017-Nov-18 09:30N 47°35' W 122°21'0 0.7
2017-Nov-18 09:00N 47°35' W 122°21'1 1.5
2017-Nov-18 08:30N 47°36' W 122°22'4 9.0
2017-Nov-18 08:00N 47°38' W 122°27'815.5
2017-Nov-18 07:31N 47°46' W 122°27'1020.4
2017-Nov-18 07:01N 47°56' W 122°31'1319.5
2017-Nov-18 06:21N 48°07' W 122°41'1020.2
2017-Nov-18 05:51N 48°11' W 122°54'920.5
2017-Nov-18 05:25N 48°12' W 123°08'920.4
2017-Nov-18 04:59N 48°10' W 123°21'612.3
2017-Nov-18 04:30N 48°12' W 123°29'918.6
2017-Nov-18 04:00N 48°14' W 123°43'1019.3
2017-Nov-18 03:30N 48°14' W 123°57'1121.1
2017-Nov-18 03:00N 48°19' W 124°12'1020.4
2017-Nov-18 02:30N 48°23' W 124°25'1020.0
2017-Nov-18 02:00N 48°27' W 124°39'1020.6
2017-Nov-18 01:30N 48°28' W 124°55'1019.9
2017-Nov-18 01:00N 48°22' W 125°07'  
Track history (hours):
 
Tides and Currents Weather Stations Pressure Air Temp Water Temp Dewpoint Dewpoint Depression Visibility Wind Speed Wind Dir Waves Ship Positions

Kauai

Owner: MATSON NAVIGATION COMPANY, INC, Tacoma, WA. More information available from US FCC via Universal Licensing System and Coast Guard Vessel Documentation Center.

Last reported at 2017-Nov-19 18:27 UTC. Time now 2017-Nov-22 09:23 UTC.
Position N 45°32' W 125°23'.

Type: Cargo ship. MMSI: 366364000.

Date/timePositionNaut miles runAvg speedWind from/ knotsBaromVisibWave heightAir tempDewpointWater temp
2017-Nov-19 18:27N 45°32' W 125°23'1020.0
2017-Nov-19 17:57N 45°42' W 125°23'919.8
2017-Nov-19 17:29N 45°52' W 125°23'2740.3
2017-Nov-19 16:48N 46°19' W 125°23'0 0.2
2017-Nov-19 16:05N 46°19' W 125°23'219.5
2017-Nov-19 15:59N 46°21' W 125°23'9919.4
2017-Nov-19 10:52N 47°60' W 125°18'719.1
2017-Nov-19 10:30N 48°07' W 125°15'918.9
2017-Nov-19 10:00N 48°15' W 125°11'919.0
2017-Nov-19 09:30N 48°25' W 125°07'917.5
2017-Nov-19 08:59N 48°31' W 124°56'919.7
2017-Nov-19 08:30N 48°30' W 124°42'1020.2
2017-Nov-19 08:01N 48°26' W 124°28'1121.1
2017-Nov-19 07:30N 48°22' W 124°14'1121.7
2017-Nov-19 07:01N 48°18' W 123°59'1121.6
2017-Nov-19 06:30N 48°16' W 123°43'1122.4
2017-Nov-19 06:00N 48°12' W 123°27'611.9
2017-Nov-19 05:30N 48°09' W 123°19'1120.8
2017-Nov-19 04:59N 48°12' W 123°04'1123.0
2017-Nov-19 04:30N 48°11' W 122°47'1223.9
2017-Nov-19 04:00N 48°01' W 122°37'1122.7
2017-Nov-19 03:30N 47°52' W 122°28'1121.6
2017-Nov-19 03:00N 47°41' W 122°27'713.2
2017-Nov-19 02:30N 47°36' W 122°21'1 1.9
2017-Nov-19 02:00N 47°35' W 122°21'0 0.0
2017-Nov-19 01:30N 47°35' W 122°21'0 0.0
2017-Nov-19 01:00N 47°35' W 122°21'0 0.0
2017-Nov-19 00:30N 47°35' W 122°21'0 0.0
2017-Nov-18 23:59N 47°35' W 122°21'0 0.0
2017-Nov-18 23:29N 47°35' W 122°21'0 0.0
2017-Nov-18 22:59N 47°35' W 122°21'0 0.0
2017-Nov-18 22:29N 47°35' W 122°21'0 0.0
2017-Nov-18 22:00N 47°35' W 122°21'0 0.0
2017-Nov-18 21:29N 47°35' W 122°21'0 0.0
2017-Nov-18 20:57N 47°35' W 122°21'0 0.0
2017-Nov-18 20:30N 47°35' W 122°21'0 0.0
2017-Nov-18 20:00N 47°35' W 122°21'0 0.0
2017-Nov-18 19:29N 47°35' W 122°21'0 0.0
2017-Nov-18 18:59N 47°35' W 122°21'0 0.0
2017-Nov-18 18:29N 47°35' W 122°21'0 0.0
2017-Nov-18 17:59N 47°35' W 122°21'0 0.0
2017-Nov-18 17:29N 47°35' W 122°21'0 0.0
2017-Nov-18 16:59N 47°35' W 122°21'0 0.0
2017-Nov-18 16:30N 47°35' W 122°21'0 0.0
2017-Nov-18 16:00N 47°35' W 122°21'0 0.0
2017-Nov-18 15:29N 47°35' W 122°21'0 0.0
2017-Nov-18 15:00N 47°35' W 122°21'0 0.0
2017-Nov-18 14:30N 47°35' W 122°21'0 0.0
2017-Nov-18 13:59N 47°35' W 122°21'0 0.0
2017-Nov-18 13:29N 47°35' W 122°21'0 0.0
2017-Nov-18 13:00N 47°35' W 122°21'0 0.0
2017-Nov-18 12:29N 47°35' W 122°21'0 0.0
2017-Nov-18 11:57N 47°35' W 122°21'0 0.0
2017-Nov-18 11:30N 47°35' W 122°21'0 0.0
2017-Nov-18 10:59N 47°35' W 122°21'0 0.0
2017-Nov-18 10:29N 47°35' W 122°21'0 0.0
2017-Nov-18 09:59N 47°35' W 122°21'0 0.0
2017-Nov-18 09:30N 47°35' W 122°21'0 0.7
2017-Nov-18 09:00N 47°35' W 122°21'1 1.5
2017-Nov-18 08:30N 47°36' W 122°22'4 9.0
2017-Nov-18 08:00N 47°38' W 122°27'815.5
2017-Nov-18 07:31N 47°46' W 122°27'1020.4
2017-Nov-18 07:01N 47°56' W 122°31'1319.5
2017-Nov-18 06:21N 48°07' W 122°41'1020.2
2017-Nov-18 05:51N 48°11' W 122°54'920.5
2017-Nov-18 05:25N 48°12' W 123°08'920.4
2017-Nov-18 04:59N 48°10' W 123°21'612.3
2017-Nov-18 04:30N 48°12' W 123°29'918.6
2017-Nov-18 04:00N 48°14' W 123°43'1019.3
2017-Nov-18 03:30N 48°14' W 123°57'1121.1
2017-Nov-18 03:00N 48°19' W 124°12'1020.4
2017-Nov-18 02:30N 48°23' W 124°25'1020.0
2017-Nov-18 02:00N 48°27' W 124°39'1020.6
2017-Nov-18 01:30N 48°28' W 124°55'1019.9
2017-Nov-18 01:00N 48°22' W 125°07'  

Dump ship's entire track history